createdAt,value
2023-04-06T00:03:31.927Z,-2.90
2023-04-06T00:05:58.898Z,-2.75
2023-04-06T00:08:27.706Z,-2.64
2023-04-06T00:10:54.756Z,-2.83
2023-04-06T00:13:21.548Z,-2.92
2023-04-06T00:15:48.516Z,-3.11
2023-04-06T00:18:16.308Z,-3.26
2023-04-06T00:20:43.265Z,-2.94
2023-04-06T00:23:10.584Z,-2.82
2023-04-06T00:25:37.628Z,-2.80
2023-04-06T00:28:04.832Z,-2.81
2023-04-06T00:30:32.125Z,-2.68
2023-04-06T00:32:58.967Z,-2.71
2023-04-06T00:35:26.170Z,-2.57
2023-04-06T00:37:53.290Z,-2.53
2023-04-06T00:40:20.228Z,-2.58
2023-04-06T00:42:47.847Z,-2.72
2023-04-06T00:45:14.968Z,-2.90
2023-04-06T00:47:42.498Z,-3.16
2023-04-06T00:50:09.878Z,-3.18
2023-04-06T00:52:36.795Z,-3.12
2023-04-06T00:55:06.554Z,-3.19
2023-04-06T00:57:38.658Z,-3.09
2023-04-06T01:00:06.534Z,-3.12
2023-04-06T01:02:34.171Z,-2.97
2023-04-06T01:05:01.500Z,-2.81
2023-04-06T01:07:36.703Z,-2.89
2023-04-06T01:10:24.571Z,-2.81
2023-04-06T01:12:52.726Z,-3.07
2023-04-06T01:15:35.429Z,-3.17
2023-04-06T01:18:03.565Z,-3.31
2023-04-06T01:20:31.509Z,-3.25
2023-04-06T01:23:01.686Z,-3.07
2023-04-06T01:25:29.612Z,-2.90
2023-04-06T01:28:07.319Z,-2.77
2023-04-06T01:31:05.064Z,-2.64
2023-04-06T01:33:46.665Z,-2.56
2023-04-06T01:36:17.630Z,-2.69
2023-04-06T01:38:48.568Z,-2.91
2023-04-06T01:41:18.827Z,-3.33
2023-04-06T01:43:50.637Z,-3.52
2023-04-06T01:46:17.608Z,-3.28
2023-04-06T01:48:45.707Z,-3.13
2023-04-06T01:51:21.816Z,-3.10
2023-04-06T01:53:58.575Z,-2.97
2023-04-06T01:56:35.677Z,-2.99
2023-04-06T01:59:12.729Z,-3.07
2023-04-06T02:01:43.062Z,-3.30
2023-04-06T02:04:10.244Z,-2.96
2023-04-06T02:06:37.400Z,-3.13
2023-04-06T02:09:06.902Z,-3.27
2023-04-06T02:11:34.728Z,-3.50
2023-04-06T02:14:02.291Z,-3.35
2023-04-06T02:16:37.045Z,-3.27
2023-04-06T02:19:03.967Z,-3.30
2023-04-06T02:21:31.234Z,-3.40
2023-04-06T02:23:59.220Z,-3.56
2023-04-06T02:26:26.514Z,-3.53
2023-04-06T02:28:53.826Z,-3.59
2023-04-06T02:31:20.810Z,-3.57
2023-04-06T02:33:47.749Z,-3.52
2023-04-06T02:36:16.484Z,-3.47
2023-04-06T02:38:43.688Z,-3.56
2023-04-06T02:41:11.341Z,-3.51
2023-04-06T02:43:38.940Z,-3.60
2023-04-06T02:46:26.611Z,-3.59
2023-04-06T02:48:54.124Z,-3.74
2023-04-06T02:51:22.018Z,-3.73
2023-04-06T02:53:55.087Z,-3.58
2023-04-06T02:56:22.861Z,-3.63
2023-04-06T02:58:51.887Z,-3.54
2023-04-06T03:01:19.741Z,-3.53
2023-04-06T03:03:50.166Z,-3.47
2023-04-06T03:06:23.962Z,-3.69
2023-04-06T03:08:55.748Z,-3.79
2023-04-06T03:11:22.916Z,-4.05
2023-04-06T03:13:51.991Z,-3.91
2023-04-06T03:16:19.081Z,-3.99
2023-04-06T03:18:48.023Z,-3.70
2023-04-06T03:21:18.875Z,-3.89
2023-04-06T03:23:52.355Z,-3.69
2023-04-06T03:26:19.563Z,-3.81
2023-04-06T03:28:46.507Z,-3.98
2023-04-06T03:31:17.321Z,-4.15
2023-04-06T03:34:00.523Z,-4.42
2023-04-06T03:36:33.233Z,-4.17
2023-04-06T03:39:01.768Z,-4.10
2023-04-06T03:41:31.891Z,-3.77
2023-04-06T03:44:08.736Z,-3.60
2023-04-06T03:46:35.801Z,-3.88
2023-04-06T03:49:02.921Z,-3.65
2023-04-06T03:51:30.899Z,-3.84
2023-04-06T03:53:58.076Z,-3.93
2023-04-06T03:56:24.866Z,-4.04
2023-04-06T03:58:54.039Z,-3.85
2023-04-06T04:01:21.859Z,-3.96
2023-04-06T04:03:51.464Z,-3.93
2023-04-06T04:06:18.585Z,-4.04
2023-04-06T04:08:46.655Z,-4.05
2023-04-06T04:11:13.350Z,-3.85
2023-04-06T04:13:40.608Z,-3.72
2023-04-06T04:16:10.962Z,-3.73
2023-04-06T04:18:37.968Z,-3.90
2023-04-06T04:21:06.856Z,-3.74
2023-04-06T04:23:37.569Z,-3.88
2023-04-06T04:26:13.446Z,-4.01
2023-04-06T04:28:45.000Z,-3.99
2023-04-06T04:31:12.306Z,-3.72
2023-04-06T04:33:41.756Z,-3.87
2023-04-06T04:36:14.729Z,-3.67
2023-04-06T04:38:43.934Z,-3.65
2023-04-06T04:41:11.949Z,-3.76
2023-04-06T04:43:42.325Z,-3.77
2023-04-06T04:46:11.709Z,-3.72
2023-04-06T04:48:42.389Z,-3.95
2023-04-06T04:51:09.549Z,-3.86
2023-04-06T04:53:57.573Z,-3.96
2023-04-06T04:56:30.223Z,-3.90
2023-04-06T04:59:06.400Z,-3.59
2023-04-06T05:01:51.300Z,-3.61
2023-04-06T05:04:24.717Z,-3.48
2023-04-06T05:07:07.783Z,-3.43
2023-04-06T05:09:37.085Z,-3.10
2023-04-06T05:12:04.540Z,-3.09
2023-04-06T05:14:36.980Z,-2.91
2023-04-06T05:17:07.768Z,-3.06
2023-04-06T05:19:37.846Z,-3.36
2023-04-06T05:22:07.158Z,-3.37
2023-04-06T05:24:37.578Z,-3.37
2023-04-06T05:27:07.350Z,-3.49
2023-04-06T05:29:35.172Z,-3.83
2023-04-06T05:32:03.547Z,-3.92
2023-04-06T05:34:31.456Z,-4.04
2023-04-06T05:37:03.673Z,-3.51
2023-04-06T05:39:32.563Z,-3.54
2023-04-06T05:42:05.202Z,-3.31
2023-04-06T05:44:45.251Z,-3.20
2023-04-06T05:47:17.074Z,-2.83
2023-04-06T05:49:48.138Z,-2.75
2023-04-06T05:52:24.853Z,-2.54
2023-04-06T05:54:52.895Z,-2.27
2023-04-06T05:57:20.946Z,-1.95
2023-04-06T05:59:49.004Z,-1.88
2023-04-06T06:02:17.352Z,-1.88
2023-04-06T06:04:48.376Z,-1.67
2023-04-06T06:07:16.816Z,-1.58
2023-04-06T06:09:49.153Z,-1.48
2023-04-06T06:12:25.634Z,-1.66
2023-04-06T06:14:52.625Z,-1.19
2023-04-06T06:19:49.039Z,0.07
2023-04-06T06:22:17.227Z,0.36
2023-04-06T06:24:47.094Z,0.50
2023-04-06T06:27:16.604Z,0.32
2023-04-06T06:29:44.187Z,0.46
2023-04-06T06:32:11.707Z,0.78
2023-04-06T06:34:39.776Z,0.88
2023-04-06T06:37:11.081Z,1.17
2023-04-06T06:39:41.404Z,1.24
2023-04-06T06:42:14.515Z,1.49
2023-04-06T06:45:03.942Z,1.70
2023-04-06T06:47:31.254Z,1.32
2023-04-06T06:50:04.862Z,0.85
2023-04-06T06:52:31.937Z,1.09
2023-04-06T06:55:01.791Z,1.53
2023-04-06T06:57:31.725Z,2.01
2023-04-06T07:00:01.964Z,2.42
2023-04-06T07:02:30.669Z,2.45
2023-04-06T07:04:58.063Z,2.66
2023-04-06T07:07:25.403Z,2.87
2023-04-06T07:09:52.534Z,2.63
2023-04-06T07:12:19.693Z,2.71
2023-04-06T07:14:47.503Z,2.32
2023-04-06T07:17:14.739Z,2.52
2023-04-06T07:19:43.427Z,2.79
2023-04-06T07:22:11.628Z,1.68
2023-04-06T07:24:38.667Z,1.79
2023-04-06T07:27:07.131Z,1.55
2023-04-06T07:29:34.276Z,1.35
2023-04-06T07:32:04.481Z,0.83
2023-04-06T07:34:32.606Z,1.67
2023-04-06T07:37:03.993Z,1.78
2023-04-06T07:39:36.569Z,2.50
2023-04-06T07:42:07.983Z,3.33
2023-04-06T07:44:37.270Z,4.07
2023-04-06T07:47:04.495Z,4.65
2023-04-06T07:49:33.987Z,4.11
2023-04-06T07:52:04.353Z,3.78
2023-04-06T07:54:33.507Z,3.85
2023-04-06T07:57:01.435Z,3.43
2023-04-06T07:59:28.850Z,4.58
2023-04-06T08:01:56.785Z,4.28
2023-04-06T08:04:27.071Z,3.95
2023-04-06T08:06:54.275Z,3.15
2023-04-06T08:09:24.538Z,3.45
2023-04-06T08:11:52.195Z,3.66
2023-04-06T08:14:23.432Z,4.14
2023-04-06T08:16:50.473Z,4.80
2023-04-06T08:19:18.379Z,5.59
2023-04-06T08:21:47.026Z,5.33
2023-04-06T08:24:15.023Z,5.64
2023-04-06T08:26:43.848Z,6.32
2023-04-06T08:29:18.601Z,6.30
2023-04-06T08:31:53.711Z,5.70
2023-04-06T08:34:22.545Z,6.16
2023-04-06T08:36:50.094Z,6.26
2023-04-06T08:39:17.500Z,6.38
2023-04-06T08:41:45.285Z,6.53
2023-04-06T08:44:15.700Z,6.36
2023-04-06T08:46:43.859Z,5.66
2023-04-06T08:49:11.469Z,7.22
2023-04-06T08:51:40.360Z,5.42
2023-04-06T08:54:07.771Z,5.46
2023-04-06T08:56:44.542Z,5.09
2023-04-06T08:59:13.619Z,5.32
2023-04-06T09:01:47.080Z,4.84
2023-04-06T09:04:17.761Z,5.54
2023-04-06T09:06:48.759Z,6.98
2023-04-06T09:09:17.119Z,6.32
2023-04-06T09:11:57.622Z,5.81
2023-04-06T09:14:39.231Z,7.23
2023-04-06T09:17:07.096Z,7.07
2023-04-06T09:19:37.450Z,7.39
2023-04-06T09:22:08.548Z,7.37
2023-04-06T09:25:07.485Z,7.53
2023-04-06T09:27:37.117Z,7.94
2023-04-06T09:30:11.405Z,8.46
2023-04-06T09:32:48.166Z,8.80
2023-04-06T09:35:17.260Z,9.04
2023-04-06T09:37:45.318Z,7.37
2023-04-06T09:40:14.572Z,8.27
2023-04-06T09:42:43.399Z,8.82
2023-04-06T09:45:11.159Z,7.83
2023-04-06T09:47:38.415Z,6.17
2023-04-06T09:50:06.212Z,7.08
2023-04-06T09:52:38.588Z,7.36
2023-04-06T09:55:06.834Z,7.31
2023-04-06T09:57:57.620Z,6.94
2023-04-06T10:00:28.567Z,7.71
2023-04-06T10:03:16.233Z,9.02
2023-04-06T10:06:01.491Z,8.34
2023-04-06T10:08:32.517Z,9.60
2023-04-06T10:11:02.044Z,10.35
2023-04-06T10:13:29.121Z,9.39
2023-04-06T10:15:57.477Z,10.05
2023-04-06T10:18:25.205Z,10.04
2023-04-06T10:21:13.281Z,9.97
2023-04-06T10:23:48.511Z,10.36
2023-04-06T10:26:18.937Z,10.38
2023-04-06T10:28:48.487Z,10.60
2023-04-06T10:31:17.046Z,8.74
2023-04-06T10:33:56.306Z,6.48
2023-04-06T10:36:28.843Z,6.57
2023-04-06T10:39:03.689Z,7.11
2023-04-06T10:41:37.415Z,6.70
2023-04-06T10:44:09.662Z,6.82
2023-04-06T10:46:40.371Z,8.42
2023-04-06T10:49:14.001Z,9.18
2023-04-06T10:51:41.368Z,9.49
2023-04-06T10:54:09.094Z,10.23
2023-04-06T10:56:40.126Z,9.12
2023-04-06T10:59:09.081Z,8.65
2023-04-06T11:01:37.184Z,8.94
2023-04-06T11:04:05.067Z,8.33
2023-04-06T11:06:33.850Z,8.30
2023-04-06T11:09:01.508Z,9.36
2023-04-06T11:11:29.523Z,9.20
2023-04-06T11:13:59.036Z,8.65
2023-04-06T11:16:32.376Z,6.52
2023-04-06T11:19:04.595Z,7.98
2023-04-06T11:21:38.339Z,8.19
2023-04-06T11:24:09.462Z,8.72
2023-04-06T11:26:55.489Z,7.09
2023-04-06T11:29:31.646Z,8.98
2023-04-06T11:32:07.395Z,9.51
2023-04-06T11:34:40.097Z,10.13
2023-04-06T11:37:12.241Z,10.00
2023-04-06T11:39:42.242Z,10.52
2023-04-06T11:42:09.764Z,10.11
2023-04-06T11:44:44.968Z,9.72
2023-04-06T11:47:14.247Z,9.96
2023-04-06T11:49:46.350Z,10.45
2023-04-06T11:52:24.952Z,10.74
2023-04-06T11:54:53.618Z,10.82
2023-04-06T11:57:22.087Z,10.55
2023-04-06T11:59:49.784Z,10.39
2023-04-06T12:02:20.476Z,9.55
2023-04-06T12:04:48.461Z,9.64
2023-04-06T12:07:15.872Z,10.72
2023-04-06T12:09:44.517Z,11.49
2023-04-06T12:12:11.737Z,10.73
2023-04-06T12:14:39.079Z,10.34
2023-04-06T12:17:10.246Z,10.40
2023-04-06T12:19:38.163Z,10.17
2023-04-06T12:22:05.172Z,9.96
2023-04-06T12:24:32.339Z,10.08
2023-04-06T12:27:08.622Z,10.59
2023-04-06T12:29:38.596Z,10.75
2023-04-06T12:32:07.148Z,11.38
2023-04-06T12:34:34.024Z,12.40
2023-04-06T12:37:01.843Z,10.97
2023-04-06T12:39:29.368Z,11.47
2023-04-06T12:41:58.643Z,11.52
2023-04-06T12:44:32.246Z,10.63
2023-04-06T12:46:59.596Z,10.27
2023-04-06T12:49:28.457Z,10.83
2023-04-06T12:51:57.897Z,10.10
2023-04-06T12:54:28.039Z,8.79
2023-04-06T12:56:57.987Z,10.17
2023-04-06T12:59:26.308Z,9.36
2023-04-06T13:01:54.014Z,10.21
2023-04-06T13:04:25.045Z,10.34
2023-04-06T13:06:56.876Z,9.41
2023-04-06T13:09:26.928Z,11.11
2023-04-06T13:11:54.797Z,10.90
2023-04-06T13:14:27.282Z,11.33
2023-04-06T13:16:54.440Z,11.07
2023-04-06T13:19:22.874Z,10.02
2023-04-06T13:21:49.739Z,10.60
2023-04-06T13:24:17.874Z,8.55
2023-04-06T13:26:45.907Z,9.04
2023-04-06T13:29:14.290Z,10.38
2023-04-06T13:31:44.464Z,9.93
2023-04-06T13:34:12.218Z,9.10
2023-04-06T13:36:44.061Z,9.81
2023-04-06T13:39:11.143Z,10.70
2023-04-06T13:41:39.462Z,11.32
2023-04-06T13:44:09.860Z,10.93
2023-04-06T13:46:38.403Z,9.51
2023-04-06T13:49:05.851Z,10.91
2023-04-06T13:51:33.252Z,10.54
2023-04-06T13:54:05.079Z,10.96
2023-04-06T13:56:34.199Z,11.60
2023-04-06T13:59:06.347Z,10.74
2023-04-06T14:01:33.876Z,11.32
2023-04-06T14:04:01.208Z,11.38
2023-04-06T14:06:31.545Z,10.47
2023-04-06T14:09:01.183Z,9.93
2023-04-06T14:11:34.212Z,8.85
2023-04-06T14:14:03.071Z,8.39
2023-04-06T14:16:33.075Z,8.01
2023-04-06T14:19:02.004Z,7.59
2023-04-06T14:21:33.841Z,7.50
2023-04-06T14:24:04.402Z,7.92
2023-04-06T14:26:34.374Z,8.04
2023-04-06T14:29:02.492Z,8.52
2023-04-06T14:31:30.570Z,9.02
2023-04-06T14:33:58.074Z,10.04
2023-04-06T14:36:28.335Z,9.60
2023-04-06T14:38:55.416Z,9.35
2023-04-06T14:41:26.928Z,10.26
2023-04-06T14:43:55.962Z,9.30
2023-04-06T14:46:24.302Z,8.82
2023-04-06T14:48:51.917Z,10.14
2023-04-06T14:51:19.597Z,10.91
2023-04-06T14:53:47.340Z,11.48
2023-04-06T14:56:20.085Z,11.99
2023-04-06T14:58:47.722Z,11.85
2023-04-06T15:01:14.905Z,12.41
2023-04-06T15:03:44.178Z,12.69
2023-04-06T15:06:21.551Z,10.62
2023-04-06T15:08:51.147Z,11.11
2023-04-06T15:11:19.114Z,11.58
2023-04-06T15:13:49.094Z,11.58
2023-04-06T15:16:19.286Z,10.79
2023-04-06T15:18:46.323Z,10.06
2023-04-06T15:21:13.513Z,9.34
2023-04-06T15:23:40.653Z,9.39
2023-04-06T15:26:07.519Z,8.28
2023-04-06T15:28:34.518Z,8.65
2023-04-06T15:31:07.068Z,9.69
2023-04-06T15:33:34.217Z,9.31
2023-04-06T15:36:07.713Z,9.67
2023-04-06T15:38:35.369Z,10.22
2023-04-06T15:41:04.514Z,10.41
2023-04-06T15:43:32.005Z,11.15
2023-04-06T15:45:59.111Z,10.34
2023-04-06T15:48:32.373Z,9.70
2023-04-06T15:50:59.938Z,10.37
2023-04-06T15:53:28.010Z,9.82
2023-04-06T15:56:02.844Z,10.18
2023-04-06T15:58:29.966Z,9.60
2023-04-06T16:01:00.180Z,9.36
2023-04-06T16:03:30.903Z,10.88
2023-04-06T16:06:08.113Z,11.41
2023-04-06T16:08:44.823Z,12.02
2023-04-06T16:11:13.682Z,11.25
2023-04-06T16:13:45.042Z,9.83
2023-04-06T16:16:15.141Z,10.67
2023-04-06T16:18:43.117Z,10.01
2023-04-06T16:21:20.603Z,10.65
2023-04-06T16:23:49.514Z,10.97
2023-04-06T16:26:18.531Z,11.22
2023-04-06T16:28:45.811Z,11.60
2023-04-06T16:31:24.479Z,11.31
2023-04-06T16:33:59.327Z,10.43
2023-04-06T16:36:28.638Z,10.40
2023-04-06T16:39:00.174Z,10.26
2023-04-06T16:41:28.068Z,10.59
2023-04-06T16:43:57.444Z,9.79
2023-04-06T16:46:35.666Z,9.96
2023-04-06T16:49:05.156Z,10.74
2023-04-06T16:51:32.975Z,10.92
2023-04-06T16:54:01.104Z,10.57
2023-04-06T16:56:28.049Z,9.79
2023-04-06T16:58:55.108Z,10.33
2023-04-06T17:01:26.930Z,9.74
2023-04-06T17:03:55.458Z,9.96
2023-04-06T17:06:27.349Z,10.39
2023-04-06T17:08:54.612Z,10.21
2023-04-06T17:11:28.061Z,10.47
2023-04-06T17:13:56.696Z,10.30
2023-04-06T17:16:24.787Z,10.03
2023-04-06T17:18:52.622Z,9.66
2023-04-06T17:21:21.044Z,9.20
2023-04-06T17:23:48.872Z,9.19
2023-04-06T17:26:16.859Z,8.92
2023-04-06T17:28:45.718Z,8.76
2023-04-06T17:31:14.378Z,8.62
2023-04-06T17:33:42.787Z,8.43
2023-04-06T17:36:11.169Z,8.26
2023-04-06T17:38:43.668Z,8.19
2023-04-06T17:41:13.163Z,8.08
2023-04-06T17:43:40.789Z,7.99
2023-04-06T17:46:08.244Z,7.73
2023-04-06T17:48:35.810Z,7.64
2023-04-06T17:51:03.415Z,7.39
2023-04-06T17:53:32.812Z,7.42
2023-04-06T17:56:04.178Z,7.03
2023-04-06T17:58:32.530Z,6.97
2023-04-06T18:00:59.862Z,6.84
2023-04-06T18:03:28.378Z,6.85
2023-04-06T18:05:57.740Z,6.43
2023-04-06T18:08:25.507Z,6.49
2023-04-06T18:10:52.616Z,6.45
2023-04-06T18:13:20.329Z,6.47
2023-04-06T18:15:49.248Z,6.42
2023-04-06T18:18:17.138Z,6.24
2023-04-06T18:20:44.053Z,6.04
2023-04-06T18:23:11.057Z,5.90
2023-04-06T18:25:41.484Z,5.88
2023-04-06T18:28:09.493Z,5.81
2023-04-06T18:30:37.172Z,5.81
2023-04-06T18:33:04.826Z,5.78
2023-04-06T18:35:31.992Z,5.63
2023-04-06T18:37:59.074Z,5.55
2023-04-06T18:40:37.408Z,5.43
2023-04-06T18:43:06.734Z,5.19
2023-04-06T18:45:35.333Z,5.12
2023-04-06T18:48:03.934Z,4.95
2023-04-06T18:50:31.133Z,4.69
2023-04-06T18:52:58.427Z,4.55
2023-04-06T18:55:26.354Z,4.49
2023-04-06T18:57:56.093Z,4.54
2023-04-06T19:00:23.871Z,4.40
2023-04-06T19:02:51.247Z,4.10
2023-04-06T19:05:19.249Z,3.86
2023-04-06T19:07:52.946Z,3.65
2023-04-06T19:10:20.329Z,3.49
2023-04-06T19:12:48.014Z,3.54
2023-04-06T19:15:15.934Z,3.47
2023-04-06T19:17:43.748Z,3.20
2023-04-06T19:20:11.884Z,2.41
2023-04-06T19:22:40.618Z,1.86
2023-04-06T19:25:08.496Z,1.45
2023-04-06T19:27:35.693Z,1.11
2023-04-06T19:30:05.740Z,1.02
2023-04-06T19:32:33.257Z,1.09
2023-04-06T19:35:01.561Z,1.32
2023-04-06T19:37:28.993Z,1.54
2023-04-06T19:39:56.225Z,1.58
2023-04-06T19:42:24.297Z,1.77
2023-04-06T19:44:52.153Z,1.81
2023-04-06T19:47:19.229Z,1.63
2023-04-06T19:49:46.288Z,1.50
2023-04-06T19:52:14.255Z,1.76
2023-04-06T19:54:41.585Z,1.80
2023-04-06T19:57:08.607Z,1.76
2023-04-06T19:59:35.950Z,1.64
2023-04-06T20:02:03.089Z,1.73
2023-04-06T20:04:30.933Z,1.72
2023-04-06T20:06:58.627Z,1.77
2023-04-06T20:09:25.798Z,1.78
2023-04-06T20:11:54.612Z,1.63
2023-04-06T20:14:22.930Z,1.47
2023-04-06T20:16:51.441Z,1.10
2023-04-06T20:19:19.038Z,0.98
2023-04-06T20:21:48.225Z,0.84
2023-04-06T20:24:16.047Z,0.88
2023-04-06T20:26:43.103Z,0.91
2023-04-06T20:29:10.025Z,1.17
2023-04-06T20:31:37.134Z,0.98
2023-04-06T20:34:04.565Z,0.95
2023-04-06T20:36:34.680Z,1.04
2023-04-06T20:39:02.223Z,0.89
2023-04-06T20:41:58.843Z,0.78
2023-04-06T20:44:28.767Z,0.89
2023-04-06T20:47:03.230Z,0.71
2023-04-06T20:49:34.555Z,0.78
2023-04-06T20:52:08.673Z,0.56
2023-04-06T20:54:44.790Z,0.19
2023-04-06T20:57:13.790Z,0.35
2023-04-06T20:59:40.517Z,0.52
2023-04-06T21:02:07.576Z,0.39
2023-04-06T21:04:35.667Z,0.37
2023-04-06T21:07:06.831Z,0.39
2023-04-06T21:09:39.188Z,0.44
2023-04-06T21:12:07.675Z,0.49
2023-04-06T21:14:37.889Z,0.28
2023-04-06T21:17:04.884Z,0.22
2023-04-06T21:19:32.066Z,0.30
2023-04-06T21:21:59.329Z,0.19
2023-04-06T21:24:26.275Z,0.34
2023-04-06T21:26:53.415Z,0.22
2023-04-06T21:29:20.912Z,0.11
2023-04-06T21:31:47.945Z,0.02
2023-04-06T21:34:15.030Z,-0.11
2023-04-06T21:36:42.993Z,-0.18
2023-04-06T21:39:10.354Z,-0.12
2023-04-06T21:41:38.050Z,-0.06
2023-04-06T21:44:05.306Z,-0.06
2023-04-06T21:46:33.081Z,-0.20
2023-04-06T21:49:00.387Z,-0.09
2023-04-06T21:51:27.447Z,-0.21
2023-04-06T21:53:55.590Z,-0.34
2023-04-06T21:56:24.841Z,-0.21
2023-04-06T21:58:52.659Z,-0.09
2023-04-06T22:01:20.936Z,-0.24
2023-04-06T22:03:48.460Z,-0.17
2023-04-06T22:06:16.239Z,-0.12
2023-04-06T22:08:47.653Z,0.02
2023-04-06T22:11:14.899Z,-0.16
2023-04-06T22:13:41.902Z,0.06
2023-04-06T22:16:09.158Z,0.22
2023-04-06T22:18:38.813Z,0.04
2023-04-06T22:21:06.229Z,0.06
2023-04-06T22:23:33.771Z,-0.03
2023-04-06T22:26:01.720Z,0.15
2023-04-06T22:28:28.646Z,0.16
2023-04-06T22:30:55.500Z,-0.05
2023-04-06T22:33:22.662Z,-0.04
2023-04-06T22:35:49.724Z,-0.01
2023-04-06T22:38:16.651Z,-0.34
2023-04-06T22:40:43.407Z,-0.35
2023-04-06T22:43:10.560Z,-0.46
2023-04-06T22:45:37.788Z,-0.48
2023-04-06T22:48:05.166Z,-0.49
2023-04-06T22:50:32.117Z,-0.67
2023-04-06T22:52:59.459Z,-0.56
2023-04-06T22:55:28.756Z,-0.67
2023-04-06T22:57:55.636Z,-0.66
2023-04-06T23:00:22.481Z,-0.52
2023-04-06T23:02:49.961Z,-0.85
2023-04-06T23:05:16.927Z,-0.93
2023-04-06T23:07:45.440Z,-0.86
2023-04-06T23:10:13.058Z,-0.86
2023-04-06T23:12:39.777Z,-0.99
2023-04-06T23:15:07.216Z,-1.10
2023-04-06T23:17:34.324Z,-0.96
2023-04-06T23:20:01.286Z,-1.04
2023-04-06T23:22:27.999Z,-1.18
2023-04-06T23:24:55.645Z,-1.21
2023-04-06T23:27:22.427Z,-1.42
2023-04-06T23:29:49.512Z,-1.30
2023-04-06T23:32:16.679Z,-1.23
2023-04-06T23:34:43.669Z,-1.35
2023-04-06T23:37:11.246Z,-1.32
2023-04-06T23:39:40.173Z,-1.21
2023-04-06T23:42:07.345Z,-1.07
2023-04-06T23:44:34.230Z,-1.17
2023-04-06T23:47:01.617Z,-1.14
2023-04-06T23:49:28.479Z,-1.09
2023-04-06T23:51:55.699Z,-1.19
2023-04-06T23:54:22.612Z,-1.10
2023-04-06T23:56:52.059Z,-1.03
2023-04-06T23:59:22.067Z,-0.92
